createdAt,value
2019-05-19T00:00:34.774Z,20.89
2019-05-19T00:03:00.803Z,20.89
2019-05-19T00:05:26.797Z,20.89
2019-05-19T00:07:52.879Z,20.89
2019-05-19T00:10:18.905Z,20.88
2019-05-19T00:12:44.901Z,20.88
2019-05-19T00:15:10.927Z,20.88
2019-05-19T00:17:36.921Z,20.88
2019-05-19T00:20:02.932Z,20.89
2019-05-19T00:22:28.931Z,20.88
2019-05-19T00:24:54.954Z,20.88
2019-05-19T00:27:20.950Z,20.88
2019-05-19T00:29:46.960Z,20.88
2019-05-19T00:32:12.973Z,20.87
2019-05-19T00:34:38.980Z,20.87
2019-05-19T00:37:04.999Z,20.87
2019-05-19T00:39:30.997Z,20.87
2019-05-19T00:41:57.013Z,20.87
2019-05-19T00:44:23.007Z,20.86
2019-05-19T00:46:49.037Z,20.86
2019-05-19T00:49:15.050Z,20.86
2019-05-19T00:51:41.052Z,20.86
2019-05-19T00:54:07.071Z,20.86
2019-05-19T00:56:33.072Z,20.86
2019-05-19T00:58:59.076Z,20.86
2019-05-19T01:01:25.109Z,20.86
2019-05-19T01:03:51.101Z,20.85
2019-05-19T01:06:17.118Z,20.86
2019-05-19T01:08:43.134Z,20.86
2019-05-19T01:11:09.131Z,20.85
2019-05-19T01:13:35.162Z,20.85
2019-05-19T01:16:01.166Z,20.85
2019-05-19T01:18:27.190Z,20.85
2019-05-19T01:20:53.199Z,20.85
2019-05-19T01:23:19.217Z,20.84
2019-05-19T01:25:45.219Z,20.85
2019-05-19T01:28:11.211Z,20.86
2019-05-19T01:30:37.235Z,20.85
2019-05-19T01:33:03.233Z,20.85
2019-05-19T01:35:29.250Z,20.85
2019-05-19T01:37:55.244Z,20.85
2019-05-19T01:40:21.282Z,20.85
2019-05-19T01:42:47.280Z,20.85
2019-05-19T01:45:13.314Z,20.84
2019-05-19T01:47:39.320Z,20.84
2019-05-19T01:50:20.681Z,20.84
2019-05-19T01:52:31.347Z,20.84
2019-05-19T01:54:57.339Z,20.84
2019-05-19T01:57:23.361Z,20.83
2019-05-19T01:59:49.358Z,20.84
2019-05-19T02:02:15.389Z,20.84
2019-05-19T02:04:41.380Z,20.84
2019-05-19T02:07:07.387Z,20.84
2019-05-19T02:09:33.403Z,20.85
2019-05-19T02:11:59.401Z,20.84
2019-05-19T02:14:25.417Z,20.84
2019-05-19T02:16:51.437Z,20.84
2019-05-19T02:19:17.433Z,20.84
2019-05-19T02:21:43.454Z,20.84
2019-05-19T02:24:09.453Z,20.83
2019-05-19T02:26:35.466Z,20.84
2019-05-19T02:29:01.476Z,20.84
2019-05-19T02:31:27.483Z,20.83
2019-05-19T02:33:53.502Z,20.83
2019-05-19T02:36:19.497Z,20.83
2019-05-19T02:38:45.510Z,20.84
2019-05-19T02:41:11.601Z,20.83
2019-05-19T02:43:37.623Z,20.84
2019-05-19T02:46:03.638Z,20.84
2019-05-19T02:48:29.630Z,20.84
2019-05-19T02:50:55.652Z,20.84
2019-05-19T02:53:21.651Z,20.84
2019-05-19T02:55:47.662Z,20.84
2019-05-19T02:58:13.664Z,20.83
2019-05-19T03:00:39.686Z,20.83
2019-05-19T03:03:05.681Z,20.83
2019-05-19T03:05:31.682Z,20.83
2019-05-19T03:07:57.712Z,20.83
2019-05-19T03:10:23.698Z,20.83
2019-05-19T03:12:49.725Z,20.84
2019-05-19T03:15:15.732Z,20.84
2019-05-19T03:17:41.748Z,20.83
2019-05-19T03:20:07.752Z,20.83
2019-05-19T03:22:33.763Z,20.84
2019-05-19T03:24:59.775Z,20.83
2019-05-19T03:27:25.774Z,20.83
2019-05-19T03:29:51.793Z,20.83
2019-05-19T03:32:17.799Z,20.84
2019-05-19T03:34:43.803Z,20.83
2019-05-19T03:37:09.810Z,20.83
2019-05-19T03:39:35.805Z,20.84
2019-05-19T03:42:01.923Z,20.84
2019-05-19T03:44:27.936Z,20.84
2019-05-19T03:46:53.940Z,20.84
2019-05-19T03:49:19.960Z,20.84
2019-05-19T03:51:45.960Z,20.84
2019-05-19T03:54:11.977Z,20.84
2019-05-19T03:56:37.983Z,20.83
2019-05-19T03:59:03.999Z,20.83
2019-05-19T04:01:29.986Z,20.84
2019-05-19T04:03:55.993Z,20.83
2019-05-19T04:06:22.060Z,20.84
2019-05-19T04:08:48.057Z,20.83
2019-05-19T04:11:14.074Z,20.83
2019-05-19T04:13:40.088Z,20.83
2019-05-19T04:16:06.121Z,20.84
2019-05-19T04:18:32.116Z,20.84
2019-05-19T04:20:58.108Z,20.84
2019-05-19T04:23:24.114Z,20.84
2019-05-19T04:25:50.140Z,20.84
2019-05-19T04:28:16.131Z,20.84
2019-05-19T04:30:42.152Z,20.85
2019-05-19T04:33:08.240Z,20.85
2019-05-19T04:35:34.260Z,20.85
2019-05-19T04:38:00.259Z,20.85
2019-05-19T04:40:26.283Z,20.86
2019-05-19T04:42:52.302Z,20.86
2019-05-19T04:45:18.659Z,20.86
2019-05-19T04:47:44.710Z,20.86
2019-05-19T04:50:10.700Z,20.86
2019-05-19T04:52:36.700Z,20.86
2019-05-19T04:55:02.722Z,20.87
2019-05-19T04:57:28.718Z,20.87
2019-05-19T04:59:54.891Z,20.87
2019-05-19T05:02:20.836Z,20.87
2019-05-19T05:04:46.832Z,20.87
2019-05-19T05:07:12.858Z,20.87
2019-05-19T05:09:38.900Z,20.87
2019-05-19T05:12:04.929Z,20.88
2019-05-19T05:14:30.904Z,20.88
2019-05-19T05:16:56.959Z,20.88
2019-05-19T05:19:22.957Z,20.88
2019-05-19T05:21:48.954Z,20.88
2019-05-19T05:24:14.966Z,20.88
2019-05-19T05:26:40.980Z,20.88
2019-05-19T05:29:07.118Z,20.88
2019-05-19T05:31:33.111Z,20.88
2019-05-19T05:33:59.256Z,20.88
2019-05-19T05:36:27.759Z,20.88
2019-05-19T05:38:51.312Z,20.88
2019-05-19T05:41:17.323Z,20.87
2019-05-19T05:43:43.338Z,20.88
2019-05-19T05:46:09.356Z,20.88
2019-05-19T05:48:35.355Z,20.88
2019-05-19T05:51:01.401Z,20.88
2019-05-19T05:53:27.524Z,20.88
2019-05-19T05:55:53.537Z,20.88
2019-05-19T05:58:19.536Z,20.87
2019-05-19T06:00:45.536Z,20.88
2019-05-19T06:03:11.658Z,20.87
2019-05-19T06:05:37.703Z,20.88
2019-05-19T06:08:03.760Z,20.88
2019-05-19T06:10:29.766Z,20.88
2019-05-19T06:12:56.432Z,20.88
2019-05-19T06:15:23.204Z,20.88
2019-05-19T06:17:49.189Z,20.88
2019-05-19T06:20:15.771Z,20.89
2019-05-19T06:22:55.094Z,20.89
2019-05-19T06:25:07.836Z,20.88
2019-05-19T06:27:33.853Z,20.89
2019-05-19T06:29:59.851Z,20.89
2019-05-19T06:32:25.880Z,20.89
2019-05-19T06:34:51.898Z,20.89
2019-05-19T06:37:17.925Z,20.89
2019-05-19T06:39:43.939Z,20.89
2019-05-19T06:42:09.936Z,20.90
2019-05-19T06:44:35.959Z,20.90
2019-05-19T06:47:01.971Z,20.90
2019-05-19T06:49:27.985Z,20.90
2019-05-19T06:51:53.989Z,20.90
2019-05-19T06:54:20.120Z,20.91
2019-05-19T06:56:46.137Z,20.92
2019-05-19T06:59:12.151Z,20.93
2019-05-19T07:01:38.188Z,20.93
2019-05-19T07:04:04.199Z,20.94
2019-05-19T07:06:30.460Z,20.95
2019-05-19T07:08:56.464Z,20.95
2019-05-19T07:11:22.473Z,20.96
2019-05-19T07:13:48.467Z,20.95
2019-05-19T07:16:14.486Z,20.95
2019-05-19T07:18:40.496Z,20.96
2019-05-19T07:21:06.490Z,20.97
2019-05-19T07:23:32.518Z,20.99
2019-05-19T07:25:58.523Z,21.00
2019-05-19T07:28:24.698Z,21.00
2019-05-19T07:30:50.716Z,21.01
2019-05-19T07:33:16.718Z,21.04
2019-05-19T07:35:42.853Z,21.04
2019-05-19T07:38:08.936Z,21.04
2019-05-19T07:40:34.937Z,21.06
2019-05-19T07:43:01.308Z,21.05
2019-05-19T07:45:27.324Z,21.06
2019-05-19T07:47:53.352Z,21.06
2019-05-19T07:50:19.379Z,21.07
2019-05-19T07:52:45.387Z,21.07
2019-05-19T07:55:11.380Z,21.09
2019-05-19T07:57:37.402Z,21.10
2019-05-19T08:00:03.439Z,21.09
2019-05-19T08:02:29.474Z,21.11
2019-05-19T08:04:55.457Z,21.10
2019-05-19T08:07:21.468Z,21.11
2019-05-19T08:09:47.488Z,21.12
2019-05-19T08:12:13.488Z,21.13
2019-05-19T08:14:39.521Z,21.13
2019-05-19T08:17:05.589Z,21.14
2019-05-19T08:19:31.597Z,21.14
2019-05-19T08:21:57.641Z,21.16
2019-05-19T08:24:23.700Z,21.17
2019-05-19T08:26:49.634Z,21.17
2019-05-19T08:29:15.626Z,21.18
2019-05-19T08:31:41.649Z,21.18
2019-05-19T08:34:07.966Z,21.19
2019-05-19T08:36:33.668Z,21.19
2019-05-19T08:38:59.676Z,21.19
2019-05-19T08:41:25.682Z,21.18
2019-05-19T08:43:53.351Z,21.19
2019-05-19T08:46:17.753Z,21.19
2019-05-19T08:48:43.748Z,21.20
2019-05-19T08:51:09.830Z,21.19
2019-05-19T08:53:35.827Z,21.21
2019-05-19T08:56:01.868Z,21.20
2019-05-19T08:58:27.862Z,21.20
2019-05-19T09:00:53.860Z,21.21
2019-05-19T09:03:19.890Z,21.22
2019-05-19T09:05:47.906Z,21.21
2019-05-19T09:08:11.983Z,21.22
2019-05-19T09:10:37.983Z,21.22
2019-05-19T09:13:04.010Z,21.23
2019-05-19T09:15:30.093Z,21.23
2019-05-19T09:17:56.065Z,21.24
2019-05-19T09:20:22.157Z,21.24
2019-05-19T09:22:48.191Z,21.24
2019-05-19T09:25:14.220Z,21.25
2019-05-19T09:27:40.230Z,21.25
2019-05-19T09:30:06.361Z,21.25
2019-05-19T09:32:32.459Z,21.26
2019-05-19T09:34:58.462Z,21.27
2019-05-19T09:37:24.542Z,21.27
2019-05-19T09:39:50.562Z,21.28
2019-05-19T09:42:16.560Z,21.28
2019-05-19T09:44:42.579Z,21.27
2019-05-19T09:47:08.572Z,21.27
2019-05-19T09:49:34.592Z,21.28
2019-05-19T09:52:00.610Z,21.31
2019-05-19T09:54:26.585Z,21.33
2019-05-19T09:56:52.616Z,21.32
2019-05-19T09:59:18.626Z,21.31
2019-05-19T10:01:44.636Z,21.32
2019-05-19T10:04:10.644Z,21.32
2019-05-19T10:06:39.234Z,21.31
2019-05-19T10:09:05.478Z,21.32
2019-05-19T10:11:31.487Z,21.33
2019-05-19T10:13:57.480Z,21.33
2019-05-19T10:16:24.334Z,21.33
2019-05-19T10:18:50.897Z,21.34
2019-05-19T10:21:16.924Z,21.35
2019-05-19T10:23:42.925Z,21.35
2019-05-19T10:26:11.398Z,21.34
2019-05-19T10:28:37.567Z,21.36
2019-05-19T10:31:03.703Z,21.38
2019-05-19T10:33:30.088Z,21.35
2019-05-19T10:35:56.102Z,21.37
2019-05-19T10:38:22.151Z,21.39
2019-05-19T10:40:48.746Z,21.40
2019-05-19T10:43:14.840Z,21.40
2019-05-19T10:45:40.843Z,21.40
2019-05-19T10:48:06.870Z,21.41
2019-05-19T10:50:32.873Z,21.42
2019-05-19T10:52:58.872Z,21.42
2019-05-19T10:55:36.127Z,21.44
2019-05-19T10:57:50.965Z,21.44
2019-05-19T11:00:16.997Z,21.43
2019-05-19T11:02:42.992Z,21.44
2019-05-19T11:05:11.211Z,21.43
2019-05-19T11:07:35.185Z,21.45
2019-05-19T11:10:01.207Z,21.44
2019-05-19T11:12:27.216Z,21.43
2019-05-19T11:14:53.229Z,21.45
2019-05-19T11:17:19.249Z,21.44
2019-05-19T11:19:45.248Z,21.45
2019-05-19T11:22:11.249Z,21.46
2019-05-19T11:24:37.269Z,21.45
2019-05-19T11:27:03.278Z,21.46
2019-05-19T11:29:29.292Z,21.46
2019-05-19T11:31:56.084Z,21.46
2019-05-19T11:34:22.095Z,21.47
2019-05-19T11:36:48.215Z,21.46
2019-05-19T11:39:14.225Z,21.46
2019-05-19T11:41:40.304Z,21.47
2019-05-19T11:44:06.310Z,21.47
2019-05-19T11:46:32.371Z,21.46
2019-05-19T11:48:58.309Z,21.45
2019-05-19T11:51:24.357Z,21.46
2019-05-19T11:53:50.473Z,21.46
2019-05-19T11:58:49.704Z,21.46
2019-05-19T12:01:15.770Z,21.45
2019-05-19T12:03:41.778Z,21.45
2019-05-19T12:06:07.800Z,21.44
2019-05-19T12:08:33.799Z,21.44
2019-05-19T12:10:59.883Z,21.44
2019-05-19T12:13:25.898Z,21.43
2019-05-19T12:15:51.892Z,21.42
2019-05-19T12:18:17.914Z,21.43
2019-05-19T12:20:43.909Z,21.44
2019-05-19T12:23:10.016Z,21.43
2019-05-19T12:25:36.008Z,21.43
2019-05-19T12:28:02.066Z,21.42
2019-05-19T12:30:28.074Z,21.44
2019-05-19T12:32:54.114Z,21.43
2019-05-19T12:35:20.242Z,21.43
2019-05-19T12:37:46.360Z,21.43
2019-05-19T12:40:12.392Z,21.43
2019-05-19T12:42:38.419Z,21.43
2019-05-19T12:45:04.408Z,21.41
2019-05-19T12:47:30.446Z,21.42
2019-05-19T12:49:56.449Z,21.42
2019-05-19T12:52:22.458Z,21.42
2019-05-19T12:54:48.500Z,21.42
2019-05-19T12:57:14.504Z,21.42
2019-05-19T12:59:40.525Z,21.41
2019-05-19T13:02:06.530Z,21.42
2019-05-19T13:04:32.597Z,21.41
2019-05-19T13:06:58.601Z,21.43
2019-05-19T13:09:24.613Z,21.43
2019-05-19T13:11:50.634Z,21.43
2019-05-19T13:14:16.639Z,21.44
2019-05-19T13:16:42.654Z,21.44
2019-05-19T13:19:08.654Z,21.46
2019-05-19T13:21:34.666Z,21.45
2019-05-19T13:24:00.667Z,21.45
2019-05-19T13:26:26.685Z,21.46
2019-05-19T13:28:52.683Z,21.45
2019-05-19T13:31:18.679Z,21.45
2019-05-19T13:33:44.702Z,21.45
2019-05-19T13:36:10.700Z,21.44
2019-05-19T13:38:36.714Z,21.44
2019-05-19T13:41:02.731Z,21.43
2019-05-19T13:43:28.805Z,21.44
2019-05-19T13:45:54.752Z,21.44
2019-05-19T13:48:20.780Z,21.45
2019-05-19T13:50:46.796Z,21.45
2019-05-19T13:53:12.916Z,21.45
2019-05-19T13:55:38.953Z,21.45
2019-05-19T13:58:04.976Z,21.45
2019-05-19T14:00:30.973Z,21.45
2019-05-19T14:02:57.008Z,21.47
2019-05-19T14:05:23.023Z,21.46
2019-05-19T14:07:49.053Z,21.47
2019-05-19T14:10:15.076Z,21.47
2019-05-19T14:12:41.081Z,21.49
2019-05-19T14:15:07.159Z,21.49
2019-05-19T14:17:33.161Z,21.48
2019-05-19T14:19:59.206Z,21.48
2019-05-19T14:22:25.188Z,21.48
2019-05-19T14:24:51.246Z,21.48
2019-05-19T14:27:29.451Z,21.47
2019-05-19T14:29:43.392Z,21.47
2019-05-19T14:32:09.694Z,21.47
2019-05-19T14:34:36.163Z,21.47
2019-05-19T14:37:02.286Z,21.47
2019-05-19T14:39:28.308Z,21.46
2019-05-19T14:41:54.334Z,21.47
2019-05-19T14:44:20.354Z,21.46
2019-05-19T14:46:46.348Z,21.45
2019-05-19T14:49:12.349Z,21.44
2019-05-19T14:51:38.809Z,21.44
2019-05-19T14:54:04.812Z,21.45
2019-05-19T14:56:33.594Z,21.45
2019-05-19T14:58:56.824Z,21.45
2019-05-19T15:01:22.981Z,21.44
2019-05-19T15:03:48.995Z,21.45
2019-05-19T15:06:15.017Z,21.46
2019-05-19T15:08:41.045Z,21.47
2019-05-19T15:11:07.041Z,21.46
2019-05-19T15:13:33.094Z,21.46
2019-05-19T15:15:59.082Z,21.45
2019-05-19T15:18:25.084Z,21.44
2019-05-19T15:20:51.102Z,21.45
2019-05-19T15:23:17.540Z,21.44
2019-05-19T15:25:43.551Z,21.44
2019-05-19T15:28:09.567Z,21.44
2019-05-19T15:30:35.564Z,21.43
2019-05-19T15:33:01.583Z,21.43
2019-05-19T15:35:27.577Z,21.43
2019-05-19T15:37:53.622Z,21.43
2019-05-19T15:40:19.661Z,21.42
2019-05-19T15:42:45.688Z,21.44
2019-05-19T15:45:11.798Z,21.44
2019-05-19T15:47:37.789Z,21.44
2019-05-19T15:50:03.848Z,21.45
2019-05-19T15:52:29.891Z,21.45
2019-05-19T15:54:56.509Z,21.45
2019-05-19T15:57:22.565Z,21.45
2019-05-19T15:59:48.607Z,21.45
2019-05-19T16:02:14.602Z,21.45
2019-05-19T16:04:40.803Z,21.46
2019-05-19T16:07:06.820Z,21.46
2019-05-19T16:09:32.811Z,21.46
2019-05-19T16:11:58.826Z,21.47
2019-05-19T16:14:24.822Z,21.45
2019-05-19T16:16:50.844Z,21.47
2019-05-19T16:19:16.851Z,21.47
2019-05-19T16:21:42.884Z,21.47
2019-05-19T16:24:08.888Z,21.47
2019-05-19T16:26:35.479Z,21.46
2019-05-19T16:29:01.507Z,21.46
2019-05-19T16:31:27.980Z,21.46
2019-05-19T16:33:54.005Z,21.46
2019-05-19T16:36:20.038Z,21.46
2019-05-19T16:38:46.044Z,21.44
2019-05-19T16:41:12.065Z,21.45
2019-05-19T16:43:38.084Z,21.44
2019-05-19T16:46:04.086Z,21.44
2019-05-19T16:48:30.100Z,21.44
2019-05-19T16:50:56.091Z,21.43
2019-05-19T16:53:22.119Z,21.43
2019-05-19T16:55:48.122Z,21.43
2019-05-19T16:58:21.253Z,21.43
2019-05-19T17:00:40.139Z,21.42
2019-05-19T17:03:06.158Z,21.43
2019-05-19T17:05:32.249Z,21.42
2019-05-19T17:07:58.240Z,21.42
2019-05-19T17:10:24.396Z,21.41
2019-05-19T17:12:50.387Z,21.42
2019-05-19T17:15:16.434Z,21.42
2019-05-19T17:17:42.432Z,21.42
2019-05-19T17:20:08.531Z,21.44
2019-05-19T17:22:34.546Z,21.46
2019-05-19T17:25:00.566Z,21.45
2019-05-19T17:27:26.582Z,21.46
2019-05-19T17:29:52.585Z,21.46
2019-05-19T17:32:18.599Z,21.46
2019-05-19T17:34:44.596Z,21.46
2019-05-19T17:37:10.631Z,21.47
2019-05-19T17:39:36.629Z,21.47
2019-05-19T17:42:02.734Z,21.47
2019-05-19T17:44:28.863Z,21.46
2019-05-19T17:46:55.461Z,21.47
2019-05-19T17:49:21.497Z,21.47
2019-05-19T17:51:47.501Z,21.47
2019-05-19T17:54:13.552Z,21.47
2019-05-19T17:56:39.581Z,21.46
2019-05-19T17:59:16.064Z,21.46
2019-05-19T18:01:31.972Z,21.47
2019-05-19T18:03:57.991Z,21.47
2019-05-19T18:06:24.005Z,21.47
2019-05-19T18:08:50.028Z,21.47
2019-05-19T18:11:16.101Z,21.47
2019-05-19T18:13:42.128Z,21.47
2019-05-19T18:16:08.128Z,21.48
2019-05-19T18:18:34.151Z,21.47
2019-05-19T18:21:00.161Z,21.48
2019-05-19T18:23:26.186Z,21.48
2019-05-19T18:25:52.200Z,21.47
2019-05-19T18:28:20.528Z,21.48
2019-05-19T18:30:47.173Z,21.47
2019-05-19T18:33:13.364Z,21.47
2019-05-19T18:35:39.411Z,21.46
2019-05-19T18:38:05.408Z,21.46
2019-05-19T18:40:31.507Z,21.47
2019-05-19T18:42:57.674Z,21.47
2019-05-19T18:45:23.669Z,21.47
2019-05-19T18:47:49.685Z,21.47
2019-05-19T18:50:16.392Z,21.47
2019-05-19T18:52:42.417Z,21.47
2019-05-19T18:55:08.422Z,21.47
2019-05-19T18:57:34.446Z,21.46
2019-05-19T19:00:00.454Z,21.46
2019-05-19T19:02:26.719Z,21.46
2019-05-19T19:04:52.779Z,21.46
2019-05-19T19:07:19.441Z,21.47
2019-05-19T19:09:45.453Z,21.47
2019-05-19T19:12:11.480Z,21.46
2019-05-19T19:14:37.478Z,21.46
2019-05-19T19:17:03.527Z,21.47
2019-05-19T19:19:29.525Z,21.48
2019-05-19T19:21:56.256Z,21.47
2019-05-19T19:24:22.272Z,21.47
2019-05-19T19:26:48.280Z,21.47
2019-05-19T19:29:14.298Z,21.47
2019-05-19T19:31:48.185Z,21.48
2019-05-19T19:34:06.411Z,21.48
2019-05-19T19:36:32.414Z,21.48
2019-05-19T19:38:58.430Z,21.48
2019-05-19T19:41:25.169Z,21.48
2019-05-19T19:43:51.162Z,21.49
2019-05-19T19:46:17.388Z,21.50
2019-05-19T19:48:43.474Z,21.49
2019-05-19T19:51:10.142Z,21.49
2019-05-19T19:53:36.512Z,21.50
2019-05-19T19:56:02.523Z,21.50
2019-05-19T19:58:28.541Z,21.50
2019-05-19T20:00:55.407Z,21.51
2019-05-19T20:03:24.321Z,21.50
2019-05-19T20:05:50.592Z,21.50
2019-05-19T20:08:16.641Z,21.50
2019-05-19T20:10:42.751Z,21.51
2019-05-19T20:13:08.753Z,21.51
2019-05-19T20:15:34.798Z,21.51
2019-05-19T20:18:00.849Z,21.51
2019-05-19T20:20:26.843Z,21.51
2019-05-19T20:22:53.703Z,21.50
2019-05-19T20:25:20.362Z,21.52
2019-05-19T20:27:46.380Z,21.52
2019-05-19T20:30:12.396Z,21.52
2019-05-19T20:32:38.401Z,21.53
2019-05-19T20:35:04.452Z,21.53
2019-05-19T20:37:30.417Z,21.52
2019-05-19T20:39:56.434Z,21.52
2019-05-19T20:42:22.576Z,21.52
2019-05-19T20:44:50.119Z,21.53
2019-05-19T20:47:16.262Z,21.53
2019-05-19T20:49:42.270Z,21.53
2019-05-19T20:52:08.313Z,21.53
2019-05-19T20:54:34.316Z,21.53
2019-05-19T20:57:00.349Z,21.54
2019-05-19T20:59:26.374Z,21.54
2019-05-19T21:01:52.471Z,21.54
2019-05-19T21:04:18.515Z,21.54
2019-05-19T21:06:44.677Z,21.55
2019-05-19T21:09:10.806Z,21.56
2019-05-19T21:11:36.818Z,21.55
2019-05-19T21:14:02.941Z,21.56
2019-05-19T21:16:28.968Z,21.55
2019-05-19T21:18:54.985Z,21.56
2019-05-19T21:21:21.022Z,21.55
2019-05-19T21:23:47.026Z,21.55
2019-05-19T21:26:13.060Z,21.55
2019-05-19T21:28:39.066Z,21.55
2019-05-19T21:31:06.327Z,21.54
2019-05-19T21:33:31.120Z,21.54
2019-05-19T21:35:57.173Z,21.54
2019-05-19T21:38:23.198Z,21.54
2019-05-19T21:40:49.211Z,21.54
2019-05-19T21:43:15.348Z,21.54
2019-05-19T21:45:41.356Z,21.54
2019-05-19T21:48:07.487Z,21.54
2019-05-19T21:50:33.519Z,21.54
2019-05-19T21:52:59.531Z,21.53
2019-05-19T21:55:25.552Z,21.53
2019-05-19T21:57:51.696Z,21.53
2019-05-19T22:00:17.846Z,21.53
2019-05-19T22:02:43.889Z,21.53
2019-05-19T22:05:09.893Z,21.53
2019-05-19T22:07:35.941Z,21.53
2019-05-19T22:10:01.947Z,21.52
2019-05-19T22:12:27.975Z,21.52
2019-05-19T22:14:53.976Z,21.52
2019-05-19T22:17:19.997Z,21.52
2019-05-19T22:19:46.123Z,21.52
2019-05-19T22:22:12.141Z,21.52
2019-05-19T22:24:38.163Z,21.51
2019-05-19T22:27:04.173Z,21.51
2019-05-19T22:29:30.238Z,21.51
2019-05-19T22:31:56.250Z,21.51
2019-05-19T22:34:22.371Z,21.51
2019-05-19T22:36:48.406Z,21.51
2019-05-19T22:39:14.421Z,21.51
2019-05-19T22:41:40.457Z,21.50
2019-05-19T22:44:06.467Z,21.51
2019-05-19T22:46:32.596Z,21.51
2019-05-19T22:48:58.609Z,21.51
2019-05-19T22:51:24.649Z,21.50
2019-05-19T22:53:50.659Z,21.50
2019-05-19T22:56:16.671Z,21.51
2019-05-19T22:58:42.722Z,21.50
2019-05-19T23:01:08.728Z,21.50
2019-05-19T23:03:34.767Z,21.50
2019-05-19T23:06:00.798Z,21.50
2019-05-19T23:08:26.809Z,21.49
2019-05-19T23:10:52.836Z,21.50
2019-05-19T23:13:18.843Z,21.49
2019-05-19T23:15:44.861Z,21.50
2019-05-19T23:18:10.919Z,21.50
2019-05-19T23:20:36.923Z,21.49
2019-05-19T23:23:02.950Z,21.49
2019-05-19T23:25:28.963Z,21.49
2019-05-19T23:27:55.019Z,21.49
2019-05-19T23:30:21.027Z,21.49
2019-05-19T23:32:47.054Z,21.50
2019-05-19T23:35:13.080Z,21.49
2019-05-19T23:37:39.093Z,21.49
2019-05-19T23:40:05.140Z,21.49
2019-05-19T23:42:31.145Z,21.49
2019-05-19T23:44:57.196Z,21.49
2019-05-19T23:47:23.197Z,21.49
2019-05-19T23:49:49.227Z,21.49
2019-05-19T23:52:15.245Z,21.49
2019-05-19T23:54:41.247Z,21.48
2019-05-19T23:57:07.304Z,21.49
2019-05-19T23:59:33.323Z,21.48
